Anderson Dam, Idaho
Current Conditions -  °F | °C
As of 2:58 PM on Thursday 27 Nov 2014 (Local Time) from KMUO Reporting Station
Broken Clouds Broken Clouds  
Wind Chill: 54°   Ceiling: 15000
Heat Index: 54°   Visibility: 10mi
Dew Point: 46°   Wind: 5mph
Humidity: 75%   Direction: 90°E
Pressure: 30.08"   Gusts: NA
Location:  43.2609°N, 115.781°W
Report Text: KMUO 272158Z AUTO 09004KT 10SM BKN150 12/08 A3008 RMK AO2 SLP186 T01200076
Loading
Personal Weather Stations






























Interactive Weather Map New forecast layout! Learn more

10-Day Weather Forecast

Advertisements
Track Severe Weather on mobile